createdAt,value
2022-09-07T00:00:20.285Z,77.46
2022-09-07T00:01:20.228Z,77.76
2022-09-07T00:02:20.240Z,78.10
2022-09-07T00:03:20.383Z,77.60
2022-09-07T00:04:20.312Z,77.39
2022-09-07T00:05:20.189Z,78.00
2022-09-07T00:06:20.176Z,78.10
2022-09-07T00:07:20.206Z,78.41
2022-09-07T00:08:20.151Z,78.20
2022-09-07T00:09:20.191Z,78.30
2022-09-07T00:10:20.144Z,78.30
2022-09-07T00:11:20.158Z,77.90
2022-09-07T00:12:20.161Z,78.20
2022-09-07T00:13:20.098Z,78.10
2022-09-07T00:14:20.097Z,78.50
2022-09-07T00:15:20.087Z,78.41
2022-09-07T00:16:20.271Z,78.61
2022-09-07T00:17:20.077Z,78.41
2022-09-07T00:18:20.058Z,78.50
2022-09-07T00:19:20.032Z,78.50
2022-09-07T00:20:20.029Z,78.30
2022-09-07T00:21:20.013Z,78.71
2022-09-07T00:22:20.013Z,78.30
2022-09-07T00:23:19.995Z,78.81
2022-09-07T00:24:20.052Z,78.71
2022-09-07T00:25:19.999Z,78.91
2022-09-07T00:26:19.951Z,78.61
2022-09-07T00:27:20.002Z,78.71
2022-09-07T00:28:19.956Z,79.01
2022-09-07T00:29:19.912Z,79.11
2022-09-07T00:30:19.930Z,79.11
2022-09-07T00:31:19.927Z,78.81
2022-09-07T00:32:19.905Z,78.91
2022-09-07T00:33:19.885Z,78.81
2022-09-07T00:34:19.891Z,78.91
2022-09-07T00:35:19.846Z,79.01
2022-09-07T00:36:19.898Z,78.91
2022-09-07T00:37:19.858Z,79.21
2022-09-07T00:38:19.870Z,79.52
2022-09-07T00:39:19.807Z,79.41
2022-09-07T00:40:19.819Z,79.21
2022-09-07T00:41:19.805Z,79.41
2022-09-07T00:42:19.825Z,79.72
2022-09-07T00:43:19.778Z,79.75
2022-09-07T00:44:19.755Z,79.96
2022-09-07T00:45:19.771Z,79.96
2022-09-07T00:46:19.872Z,80.16
2022-09-07T00:47:19.806Z,79.86
2022-09-07T00:48:19.721Z,79.75
2022-09-07T00:49:19.701Z,79.86
2022-09-07T00:50:19.716Z,79.55
2022-09-07T00:51:19.690Z,79.21
2022-09-07T00:52:19.725Z,79.21
2022-09-07T00:53:19.647Z,79.52
2022-09-07T00:54:19.658Z,79.52
2022-09-07T00:55:19.652Z,79.72
2022-09-07T00:56:19.637Z,79.41
2022-09-07T00:57:19.637Z,80.12
2022-09-07T00:58:19.607Z,79.82
2022-09-07T00:59:19.592Z,79.75
2022-09-07T01:00:19.588Z,79.86
2022-09-07T01:01:19.804Z,80.06
2022-09-07T01:02:19.716Z,79.86
2022-09-07T01:03:19.536Z,80.16
2022-09-07T01:04:19.565Z,80.36
2022-09-07T01:05:19.528Z,80.46
2022-09-07T01:06:19.517Z,80.06
2022-09-07T01:07:19.562Z,80.16
2022-09-07T01:08:19.504Z,80.06
2022-09-07T01:09:19.475Z,80.06
2022-09-07T01:10:19.531Z,80.36
2022-09-07T01:11:19.467Z,80.16
2022-09-07T01:12:19.518Z,80.36
2022-09-07T01:13:19.483Z,80.36
2022-09-07T01:14:19.438Z,79.86
2022-09-07T01:15:19.442Z,80.16
2022-09-07T01:16:19.437Z,80.36
2022-09-07T01:17:19.404Z,80.06
2022-09-07T01:18:19.391Z,80.46
2022-09-07T01:19:19.389Z,80.46
2022-09-07T01:20:19.380Z,80.06
2022-09-07T01:21:19.351Z,80.16
2022-09-07T01:22:19.392Z,80.36
2022-09-07T01:23:19.326Z,80.46
2022-09-07T01:24:19.356Z,80.16
2022-09-07T01:25:19.305Z,80.06
2022-09-07T01:26:19.313Z,80.26
2022-09-07T01:27:19.346Z,80.16
2022-09-07T01:28:19.272Z,79.46
2022-09-07T01:29:19.277Z,79.32
2022-09-07T01:30:19.308Z,79.21
2022-09-07T01:31:19.306Z,79.62
2022-09-07T01:32:19.265Z,79.72
2022-09-07T01:33:19.238Z,79.21
2022-09-07T01:34:19.243Z,79.21
2022-09-07T01:35:18.187Z,79.41
2022-09-07T01:36:19.207Z,78.91
2022-09-07T01:37:19.190Z,79.21
2022-09-07T01:38:19.164Z,78.41
2022-09-07T01:39:19.154Z,79.32
2022-09-07T01:40:19.147Z,79.01
2022-09-07T01:41:19.148Z,79.52
2022-09-07T01:42:19.141Z,79.32
2022-09-07T01:43:19.149Z,78.30
2022-09-07T01:44:19.099Z,78.81
2022-09-07T01:45:19.118Z,79.62
2022-09-07T01:46:19.170Z,79.72
2022-09-07T01:47:19.109Z,79.82
2022-09-07T01:48:19.068Z,79.72
2022-09-07T01:49:19.058Z,79.62
2022-09-07T01:50:19.055Z,79.01
2022-09-07T01:51:19.021Z,79.41
2022-09-07T01:52:19.027Z,79.82
2022-09-07T01:53:19.586Z,78.91
2022-09-07T01:54:19.039Z,79.11
2022-09-07T01:55:18.977Z,79.41
2022-09-07T01:56:18.993Z,78.91
2022-09-07T01:57:18.978Z,79.32
2022-09-07T01:58:18.948Z,79.41
2022-09-07T01:59:18.923Z,79.11
2022-09-07T02:00:18.963Z,79.41
2022-09-07T02:01:18.957Z,79.72
2022-09-07T02:02:18.958Z,79.82
2022-09-07T02:03:18.878Z,80.02
2022-09-07T02:04:18.874Z,80.26
2022-09-07T02:05:18.882Z,80.06
2022-09-07T02:06:18.861Z,80.16
2022-09-07T02:07:18.853Z,80.36
2022-09-07T02:08:18.845Z,79.55
2022-09-07T02:09:18.842Z,79.05
2022-09-07T02:10:18.824Z,79.25
2022-09-07T02:11:18.797Z,79.66
2022-09-07T02:12:18.824Z,79.86
2022-09-07T02:13:18.781Z,79.75
2022-09-07T02:14:18.764Z,80.16
2022-09-07T02:15:18.786Z,79.96
2022-09-07T02:16:18.859Z,80.16
2022-09-07T02:17:18.757Z,80.16
2022-09-07T02:18:18.755Z,80.26
2022-09-07T02:19:18.738Z,79.25
2022-09-07T02:20:18.747Z,79.46
2022-09-07T02:21:18.744Z,79.25
2022-09-07T02:22:18.715Z,78.95
2022-09-07T02:23:18.719Z,79.66
2022-09-07T02:24:18.663Z,79.75
2022-09-07T02:25:18.681Z,79.86
2022-09-07T02:26:18.721Z,80.06
2022-09-07T02:27:18.633Z,79.66
2022-09-07T02:28:18.622Z,79.75
2022-09-07T02:29:18.625Z,79.66
2022-09-07T02:30:18.644Z,79.66
2022-09-07T02:31:18.703Z,79.55
2022-09-07T02:32:18.570Z,79.86
2022-09-07T02:33:18.578Z,80.06
2022-09-07T02:34:18.558Z,79.96
2022-09-07T02:35:18.552Z,79.66
2022-09-07T02:36:18.537Z,80.16
2022-09-07T02:37:18.518Z,79.49
2022-09-07T02:38:18.540Z,79.39
2022-09-07T02:39:18.494Z,79.49
2022-09-07T02:40:18.506Z,79.49
2022-09-07T02:41:18.492Z,80.20
2022-09-07T02:42:18.503Z,80.30
2022-09-07T02:43:18.480Z,80.20
2022-09-07T02:44:18.468Z,80.10
2022-09-07T02:45:18.448Z,79.90
2022-09-07T02:46:18.496Z,80.00
2022-09-07T02:47:18.413Z,79.79
2022-09-07T02:48:18.425Z,80.40
2022-09-07T02:49:18.398Z,80.30
2022-09-07T02:50:18.405Z,80.30
2022-09-07T02:51:18.378Z,80.20
2022-09-07T02:52:18.423Z,80.20
2022-09-07T02:53:18.380Z,80.40
2022-09-07T02:54:18.358Z,80.50
2022-09-07T02:55:18.332Z,80.60
2022-09-07T02:56:18.357Z,80.80
2022-09-07T02:57:18.322Z,80.71
2022-09-07T02:58:18.337Z,79.93
2022-09-07T02:59:18.294Z,80.00
2022-09-07T03:00:18.305Z,80.30
2022-09-07T03:01:18.290Z,80.24
2022-09-07T03:02:18.291Z,80.34
2022-09-07T03:03:18.255Z,80.24
2022-09-07T03:04:18.244Z,80.34
2022-09-07T03:05:18.217Z,80.44
2022-09-07T03:06:18.260Z,80.54
2022-09-07T03:07:18.201Z,80.94
2022-09-07T03:08:18.220Z,80.44
2022-09-07T03:09:18.173Z,80.34
2022-09-07T03:10:18.163Z,80.24
2022-09-07T03:11:18.183Z,80.54
2022-09-07T03:12:18.194Z,80.74
2022-09-07T03:13:18.146Z,80.44
2022-09-07T03:14:18.149Z,80.64
2022-09-07T03:15:18.148Z,80.94
2022-09-07T03:16:18.234Z,80.84
2022-09-07T03:17:18.126Z,80.74
2022-09-07T03:18:18.094Z,80.84
2022-09-07T03:19:18.066Z,80.94
2022-09-07T03:20:18.077Z,81.05
2022-09-07T03:21:18.049Z,81.25
2022-09-07T03:22:18.050Z,81.25
2022-09-07T03:23:18.069Z,81.15
2022-09-07T03:24:18.042Z,81.05
2022-09-07T03:25:18.050Z,81.15
2022-09-07T03:26:17.998Z,81.25
2022-09-07T03:27:17.982Z,81.25
2022-09-07T03:28:18.014Z,81.15
2022-09-07T03:29:17.972Z,80.74
2022-09-07T03:30:17.951Z,80.54
2022-09-07T03:31:17.978Z,80.54
2022-09-07T03:32:18.006Z,80.74
2022-09-07T03:33:17.956Z,80.34
2022-09-07T03:34:17.916Z,80.54
2022-09-07T03:35:17.918Z,80.44
2022-09-07T03:36:17.985Z,80.54
2022-09-07T03:37:17.921Z,80.34
2022-09-07T03:38:17.883Z,80.34
2022-09-07T03:39:17.879Z,80.54
2022-09-07T03:40:17.845Z,81.05
2022-09-07T03:41:17.835Z,80.94
2022-09-07T03:42:17.854Z,80.84
2022-09-07T03:43:17.861Z,81.05
2022-09-07T03:44:17.827Z,81.18
2022-09-07T03:45:17.782Z,81.29
2022-09-07T03:46:17.831Z,81.29
2022-09-07T03:47:17.761Z,80.98
2022-09-07T03:48:17.806Z,80.78
2022-09-07T03:49:17.748Z,80.88
2022-09-07T03:50:17.818Z,80.98
2022-09-07T03:51:17.724Z,81.09
2022-09-07T03:52:17.726Z,81.09
2022-09-07T03:53:17.729Z,81.09
2022-09-07T03:54:17.705Z,80.58
2022-09-07T03:55:17.680Z,80.58
2022-09-07T03:56:17.681Z,80.34
2022-09-07T03:57:17.660Z,80.34
2022-09-07T03:58:17.691Z,80.24
2022-09-07T03:59:17.652Z,80.13
2022-09-07T04:00:17.665Z,80.34
2022-09-07T04:01:17.646Z,80.24
2022-09-07T04:02:17.749Z,80.34
2022-09-07T04:03:17.612Z,80.34
2022-09-07T04:04:17.591Z,79.93
2022-09-07T04:05:17.575Z,79.93
2022-09-07T04:06:17.563Z,80.04
2022-09-07T04:07:17.539Z,80.04
2022-09-07T04:08:17.573Z,79.93
2022-09-07T04:09:17.573Z,80.24
2022-09-07T04:10:17.533Z,80.04
2022-09-07T04:11:17.515Z,79.83
2022-09-07T04:12:17.509Z,79.83
2022-09-07T04:13:17.536Z,79.93
2022-09-07T04:14:17.502Z,80.24
2022-09-07T04:15:17.474Z,80.24
2022-09-07T04:16:17.549Z,80.64
2022-09-07T04:17:17.476Z,81.05
2022-09-07T04:18:17.470Z,80.27
2022-09-07T04:19:17.409Z,80.38
2022-09-07T04:20:17.455Z,80.47
2022-09-07T04:21:17.407Z,80.78
2022-09-07T04:22:17.406Z,80.78
2022-09-07T04:23:17.398Z,80.88
2022-09-07T04:24:17.404Z,80.78
2022-09-07T04:25:17.366Z,81.09
2022-09-07T04:26:17.359Z,80.98
2022-09-07T04:27:17.342Z,81.09
2022-09-07T04:28:17.362Z,81.29
2022-09-07T04:29:17.328Z,80.78
2022-09-07T04:30:17.306Z,81.18
2022-09-07T04:31:17.335Z,80.98
2022-09-07T04:32:17.289Z,80.88
2022-09-07T04:33:17.336Z,81.09
2022-09-07T04:34:17.319Z,81.18
2022-09-07T04:35:17.255Z,81.29
2022-09-07T04:36:17.256Z,80.98
2022-09-07T04:37:17.227Z,80.88
2022-09-07T04:38:17.245Z,81.09
2022-09-07T04:39:17.203Z,81.18
2022-09-07T04:40:17.257Z,81.59
2022-09-07T04:41:17.201Z,81.69
2022-09-07T04:42:17.179Z,81.59
2022-09-07T04:43:17.251Z,80.88
2022-09-07T04:44:17.351Z,81.29
2022-09-07T04:45:17.148Z,81.29
2022-09-07T04:46:17.294Z,81.55
2022-09-07T04:47:17.116Z,81.76
2022-09-07T04:49:16.495Z,81.85
2022-09-07T04:50:17.490Z,81.45
2022-09-07T04:51:17.467Z,81.45
2022-09-07T04:52:17.465Z,81.65
2022-09-07T04:53:17.472Z,81.25
2022-09-07T04:54:17.434Z,81.55
2022-09-07T04:55:17.427Z,81.55
2022-09-07T04:56:17.430Z,81.45
2022-09-07T04:57:17.412Z,81.55
2022-09-07T04:58:17.454Z,81.45
2022-09-07T04:59:17.393Z,81.45
2022-09-07T05:00:17.378Z,81.35
2022-09-07T05:01:17.429Z,81.35
2022-09-07T05:02:17.391Z,81.21
2022-09-07T05:03:17.355Z,81.11
2022-09-07T05:04:17.330Z,81.31
2022-09-07T05:05:17.330Z,81.41
2022-09-07T05:06:17.318Z,81.62
2022-09-07T05:07:17.297Z,81.51
2022-09-07T05:08:17.335Z,81.41
2022-09-07T05:09:17.272Z,81.31
2022-09-07T05:10:17.279Z,81.31
2022-09-07T05:11:17.252Z,81.31
2022-09-07T05:12:17.247Z,81.41
2022-09-07T05:13:17.252Z,81.71
2022-09-07T05:14:17.229Z,81.62
2022-09-07T05:15:17.208Z,81.31
2022-09-07T05:16:17.239Z,81.21
2022-09-07T05:17:17.194Z,81.31
2022-09-07T05:18:17.207Z,81.31
2022-09-07T05:19:17.169Z,81.31
2022-09-07T05:20:20.143Z,81.31
2022-09-07T05:21:17.145Z,81.51
2022-09-07T05:22:17.136Z,81.92
2022-09-07T05:23:17.133Z,81.41
2022-09-07T05:24:17.108Z,81.41
2022-09-07T05:25:17.097Z,81.51
2022-09-07T05:26:17.093Z,81.62
2022-09-07T05:27:17.078Z,81.62
2022-09-07T05:28:19.439Z,81.62
2022-09-07T05:31:17.328Z,81.88
2022-09-07T05:32:17.040Z,82.08
2022-09-07T05:33:17.019Z,82.08
2022-09-07T05:34:32.733Z,81.92
2022-09-07T05:35:16.995Z,81.68
2022-09-07T05:36:16.986Z,81.57
2022-09-07T05:37:16.970Z,81.57
2022-09-07T05:38:16.961Z,81.62
2022-09-07T05:39:16.958Z,81.78
2022-09-07T05:40:16.961Z,81.68
2022-09-07T05:41:16.937Z,81.88
2022-09-07T05:42:16.918Z,81.68
2022-09-07T05:43:16.909Z,81.57
2022-09-07T05:45:16.908Z,81.78
2022-09-07T05:46:16.992Z,81.68
2022-09-07T05:47:16.890Z,81.78
2022-09-07T05:48:16.864Z,82.18
2022-09-07T05:49:16.860Z,82.18
2022-09-07T05:50:16.821Z,81.78
2022-09-07T05:51:16.816Z,81.98
2022-09-07T05:52:16.804Z,81.98
2022-09-07T05:53:16.791Z,81.98
2022-09-07T05:54:16.802Z,81.98
2022-09-07T05:55:29.284Z,82.28
2022-09-07T05:56:16.777Z,82.28
2022-09-07T05:57:16.741Z,82.89
2022-09-07T05:58:16.737Z,82.99
2022-09-07T05:59:16.732Z,83.50
2022-09-07T06:00:16.723Z,83.90
2022-09-07T06:01:16.723Z,84.41
2022-09-07T06:02:16.879Z,84.81
2022-09-07T06:03:16.764Z,84.91
2022-09-07T06:04:16.695Z,85.52
2022-09-07T06:05:16.665Z,86.33
2022-09-07T06:06:16.661Z,86.63
2022-09-07T06:07:23.885Z,86.73
2022-09-07T06:08:16.633Z,87.74
2022-09-07T06:09:16.637Z,88.09
2022-09-07T06:11:16.598Z,88.19
2022-09-07T06:12:16.587Z,88.49
2022-09-07T06:13:16.577Z,88.79
2022-09-07T06:14:16.590Z,89.00
2022-09-07T06:15:16.562Z,89.40
2022-09-07T06:16:16.610Z,89.50
2022-09-07T06:17:16.537Z,89.50
2022-09-07T06:18:16.537Z,90.11
2022-09-07T06:19:16.525Z,90.21
2022-09-07T06:20:16.500Z,90.62
2022-09-07T06:21:16.494Z,90.82
2022-09-07T06:22:16.497Z,90.96
2022-09-07T06:23:16.474Z,91.06
2022-09-07T06:24:16.467Z,91.57
2022-09-07T06:25:16.455Z,91.67
2022-09-07T06:26:16.462Z,91.87
2022-09-07T06:27:16.434Z,91.97
2022-09-07T06:28:16.430Z,92.48
2022-09-07T06:29:16.410Z,92.68
2022-09-07T06:30:16.396Z,93.08
2022-09-07T06:31:16.441Z,93.39
2022-09-07T06:33:19.571Z,93.74
2022-09-07T06:34:16.378Z,93.94
2022-09-07T06:35:16.348Z,94.14
2022-09-07T06:36:16.329Z,94.14
2022-09-07T06:37:16.317Z,94.24
2022-09-07T06:38:16.317Z,94.35
2022-09-07T06:39:16.311Z,94.55
2022-09-07T06:40:16.356Z,94.65
2022-09-07T06:42:16.271Z,94.85
2022-09-07T06:43:16.253Z,94.85
2022-09-07T06:44:16.251Z,94.95
2022-09-07T06:45:16.248Z,95.06
2022-09-07T06:47:16.207Z,94.65
2022-09-07T06:48:16.197Z,94.75
2022-09-07T06:49:16.188Z,94.85
2022-09-07T06:50:16.197Z,95.06
2022-09-07T06:51:16.188Z,95.26
2022-09-07T06:52:16.167Z,95.26
2022-09-07T06:55:16.149Z,95.15
2022-09-07T06:56:16.119Z,95.06
2022-09-07T06:57:16.104Z,94.95
2022-09-07T06:58:16.101Z,94.85
2022-09-07T06:59:16.078Z,94.75
2022-09-07T07:00:16.071Z,94.65
2022-09-07T07:01:16.236Z,94.65
2022-09-07T07:02:16.054Z,94.65
2022-09-07T07:03:16.092Z,94.50
2022-09-07T07:04:16.033Z,94.50
2022-09-07T07:05:16.031Z,94.50
2022-09-07T07:06:16.018Z,94.60
2022-09-07T07:07:16.012Z,94.81
2022-09-07T07:08:15.988Z,94.81
2022-09-07T07:09:15.972Z,94.81
2022-09-07T07:10:17.856Z,94.71
2022-09-07T07:11:15.955Z,94.71
2022-09-07T07:13:49.933Z,94.91
2022-09-07T07:14:50.903Z,95.01
2022-09-07T07:15:50.906Z,94.91
2022-09-07T07:16:50.906Z,95.01
2022-09-07T07:17:58.160Z,94.91
2022-09-07T07:18:50.876Z,94.91
2022-09-07T07:19:50.865Z,94.71
2022-09-07T07:20:50.852Z,94.71
2022-09-07T07:22:50.827Z,94.60
2022-09-07T07:23:50.871Z,94.50
2022-09-07T07:24:50.798Z,94.36
2022-09-07T07:25:50.798Z,94.26
2022-09-07T07:26:50.780Z,93.95
2022-09-07T07:27:50.917Z,94.15
2022-09-07T07:29:06.085Z,93.95
2022-09-07T07:29:50.771Z,93.85
2022-09-07T07:30:50.738Z,93.65
2022-09-07T07:31:50.733Z,93.44
2022-09-07T07:32:50.715Z,93.35
2022-09-07T07:33:50.753Z,93.15
2022-09-07T07:34:50.738Z,93.15
2022-09-07T07:35:50.685Z,93.44
2022-09-07T07:36:50.668Z,93.35
2022-09-07T07:37:50.793Z,93.55
2022-09-07T07:41:57.406Z,93.90
2022-09-07T07:42:50.621Z,93.59
2022-09-07T07:43:50.598Z,93.49
2022-09-07T07:45:56.677Z,93.79
2022-09-07T07:46:50.760Z,93.59
2022-09-07T07:47:50.553Z,93.59
2022-09-07T07:48:50.536Z,93.49
2022-09-07T07:50:30.463Z,93.49
2022-09-07T07:50:50.525Z,93.70
2022-09-07T07:53:39.474Z,93.90
2022-09-07T07:53:50.489Z,93.90
2022-09-07T07:54:50.487Z,94.00
2022-09-07T07:55:50.560Z,94.24
2022-09-07T07:56:50.457Z,94.14
2022-09-07T07:57:50.469Z,94.24
2022-09-07T07:58:50.429Z,94.75
2022-09-07T07:59:50.425Z,94.75
2022-09-07T08:00:54.819Z,94.85
2022-09-07T08:01:50.551Z,94.95
2022-09-07T08:02:50.451Z,94.85
2022-09-07T08:03:50.380Z,94.75
2022-09-07T08:04:50.368Z,94.45
2022-09-07T08:05:50.376Z,94.45
2022-09-07T08:06:50.351Z,94.55
2022-09-07T08:07:50.335Z,94.85
2022-09-07T08:08:50.430Z,95.15
2022-09-07T08:09:50.313Z,95.15
2022-09-07T08:10:50.301Z,95.06
2022-09-07T08:11:50.298Z,94.91
2022-09-07T08:12:50.278Z,94.81
2022-09-07T08:13:50.273Z,94.81
2022-09-07T08:14:50.270Z,94.81
2022-09-07T08:15:50.330Z,94.81
2022-09-07T08:16:50.233Z,94.71
2022-09-07T08:17:50.227Z,94.56
2022-09-07T08:18:50.219Z,94.46
2022-09-07T08:19:50.221Z,94.20
2022-09-07T08:20:50.232Z,94.00
2022-09-07T08:21:50.187Z,93.70
2022-09-07T08:22:50.186Z,93.70
2022-09-07T08:23:50.165Z,93.90
2022-09-07T08:24:50.151Z,94.00
2022-09-07T08:25:50.132Z,93.90
2022-09-07T08:26:50.184Z,94.00
2022-09-07T08:27:50.108Z,93.90
2022-09-07T08:28:50.100Z,94.00
2022-09-07T08:29:50.096Z,93.90
2022-09-07T08:30:50.079Z,93.90
2022-09-07T08:31:50.275Z,93.29
2022-09-07T08:32:50.070Z,93.08
2022-09-07T08:33:50.054Z,93.15
2022-09-07T08:34:50.064Z,93.65
2022-09-07T08:35:50.030Z,93.65
2022-09-07T08:36:50.012Z,93.65
2022-09-07T08:37:50.023Z,93.35
2022-09-07T08:38:49.995Z,93.29
2022-09-07T08:39:50.059Z,93.08
2022-09-07T08:40:49.963Z,93.29
2022-09-07T08:41:49.969Z,93.39
2022-09-07T08:42:49.951Z,93.65
2022-09-07T08:43:49.951Z,93.55
2022-09-07T08:44:49.922Z,93.29
2022-09-07T08:45:49.927Z,93.39
2022-09-07T08:46:50.050Z,93.39
2022-09-07T08:47:49.893Z,93.59
2022-09-07T08:48:49.884Z,93.29
2022-09-07T08:49:49.890Z,93.08
2022-09-07T08:50:49.878Z,92.68
2022-09-07T08:51:49.861Z,92.88
2022-09-07T08:52:49.849Z,93.19
2022-09-07T08:53:49.828Z,93.29
2022-09-07T08:54:49.807Z,93.59
2022-09-07T08:55:49.818Z,93.39
2022-09-07T08:57:50.123Z,92.79
2022-09-07T08:58:50.454Z,92.58
2022-09-07T08:59:49.771Z,92.54
2022-09-07T09:00:50.261Z,93.04
2022-09-07T09:03:28.736Z,93.10
2022-09-07T09:05:49.865Z,93.16
2022-09-07T09:06:49.813Z,93.16
2022-09-07T09:07:49.662Z,92.85
2022-09-07T09:08:49.679Z,92.71
2022-09-07T09:09:49.705Z,92.50
2022-09-07T09:10:49.639Z,91.70
2022-09-07T09:11:49.629Z,90.79
2022-09-07T09:12:49.636Z,91.25
2022-09-07T09:13:49.604Z,91.35
2022-09-07T09:14:49.598Z,91.15
2022-09-07T09:15:49.632Z,91.05
2022-09-07T09:16:49.571Z,90.81
2022-09-07T09:17:49.592Z,90.61
2022-09-07T09:18:49.549Z,90.50
2022-09-07T09:19:49.545Z,90.16
2022-09-07T09:20:49.538Z,89.86
2022-09-07T09:21:49.519Z,89.55
2022-09-07T09:22:49.506Z,89.86
2022-09-07T09:23:49.516Z,90.26
2022-09-07T09:24:49.492Z,90.01
2022-09-07T09:25:49.485Z,89.51
2022-09-07T09:27:49.453Z,89.55
2022-09-07T09:28:49.462Z,90.16
2022-09-07T09:29:49.438Z,90.86
2022-09-07T09:30:49.459Z,90.26
2022-09-07T09:31:49.425Z,90.97
2022-09-07T09:32:49.405Z,90.86
2022-09-07T09:33:49.402Z,90.72
2022-09-07T09:34:49.373Z,90.62
2022-09-07T09:35:49.360Z,89.91
2022-09-07T09:36:49.357Z,89.91
2022-09-07T09:37:49.346Z,90.22
2022-09-07T09:38:49.344Z,90.42
2022-09-07T09:39:51.022Z,90.48
2022-09-07T09:40:49.316Z,90.37
2022-09-07T09:41:49.303Z,90.48
2022-09-07T09:42:49.291Z,90.44
2022-09-07T09:43:49.302Z,91.14
2022-09-07T09:44:49.267Z,90.79
2022-09-07T09:46:48.557Z,90.15
2022-09-07T09:47:49.269Z,89.75
2022-09-07T09:48:49.218Z,89.75
2022-09-07T09:49:49.235Z,88.64
2022-09-07T09:52:51.792Z,88.70
2022-09-07T09:53:49.177Z,89.40
2022-09-07T09:54:49.168Z,89.70
2022-09-07T09:55:49.161Z,90.41
2022-09-07T09:56:49.139Z,89.40
2022-09-07T09:59:05.100Z,88.90
2022-09-07T09:59:57.680Z,88.49
2022-09-07T10:03:57.504Z,88.79
2022-09-07T10:04:49.049Z,89.20
2022-09-07T10:05:49.047Z,89.80
2022-09-07T10:06:49.020Z,90.41
2022-09-07T10:07:49.014Z,90.97
2022-09-07T10:08:48.997Z,89.06
2022-09-07T10:09:48.993Z,89.36
2022-09-07T10:10:48.986Z,89.72
2022-09-07T10:12:48.967Z,89.31
2022-09-07T10:13:48.948Z,89.82
2022-09-07T10:14:48.930Z,89.47
2022-09-07T10:15:48.932Z,87.60
2022-09-07T10:16:48.918Z,87.81
2022-09-07T10:17:48.922Z,88.37
2022-09-07T10:18:48.891Z,89.78
2022-09-07T10:19:48.887Z,89.07
2022-09-07T10:20:48.866Z,89.03
2022-09-07T10:21:48.862Z,90.13
2022-09-07T10:22:51.523Z,90.53
2022-09-07T10:23:48.858Z,89.89
2022-09-07T10:24:48.837Z,89.49
2022-09-07T10:25:48.811Z,89.09
2022-09-07T10:26:48.802Z,89.04
2022-09-07T10:27:48.795Z,88.64
2022-09-07T10:29:48.830Z,88.54
2022-09-07T10:30:48.843Z,87.54
2022-09-07T10:31:48.750Z,86.44
2022-09-07T10:32:48.739Z,86.74
2022-09-07T10:34:48.727Z,87.04
2022-09-07T10:35:48.732Z,86.54
2022-09-07T10:36:48.686Z,87.04
2022-09-07T10:37:48.689Z,85.63
2022-09-07T10:38:48.679Z,86.04
2022-09-07T10:39:48.695Z,86.24
2022-09-07T10:40:48.652Z,85.80
2022-09-07T10:41:48.661Z,86.40
2022-09-07T10:43:48.634Z,86.69
2022-09-07T10:44:48.616Z,86.50
2022-09-07T10:45:48.601Z,86.66
2022-09-07T10:47:03.987Z,86.76
2022-09-07T10:47:48.602Z,85.15
2022-09-07T10:48:55.129Z,85.55
2022-09-07T10:50:48.550Z,86.76
2022-09-07T10:51:48.541Z,85.91
2022-09-07T10:52:48.535Z,83.45
2022-09-07T10:54:29.977Z,83.15
2022-09-07T10:54:48.535Z,83.71
2022-09-07T10:55:48.491Z,85.31
2022-09-07T10:56:48.478Z,86.57
2022-09-07T10:57:49.372Z,85.37
2022-09-07T10:59:04.361Z,85.77
2022-09-07T11:00:48.445Z,85.63
2022-09-07T11:01:48.471Z,84.83
2022-09-07T11:03:48.433Z,84.03
2022-09-07T11:04:48.400Z,84.83
2022-09-07T11:05:48.440Z,85.59
2022-09-07T11:06:48.377Z,84.89
2022-09-07T11:07:48.365Z,84.89
2022-09-07T11:09:48.348Z,85.99
2022-09-07T11:10:48.327Z,85.95
2022-09-07T11:12:04.440Z,86.15
2022-09-07T11:12:48.327Z,84.45
2022-09-07T11:14:11.448Z,84.35
2022-09-07T11:14:48.295Z,81.99
2022-09-07T11:15:48.309Z,82.29
2022-09-07T11:16:51.738Z,81.89
2022-09-07T11:17:52.565Z,81.29
2022-09-07T11:18:48.243Z,82.09
2022-09-07T11:19:48.233Z,81.79
2022-09-07T11:20:48.230Z,82.89
2022-09-07T11:22:03.608Z,81.29
2022-09-07T11:22:48.202Z,81.75
2022-09-07T11:23:48.212Z,84.65
2022-09-07T11:25:28.808Z,84.91
2022-09-07T11:25:48.275Z,81.75
2022-09-07T11:26:48.160Z,81.81
2022-09-07T11:27:48.152Z,82.61
2022-09-07T11:29:28.742Z,84.31
2022-09-07T11:29:48.166Z,85.61
2022-09-07T11:30:48.229Z,84.71
2022-09-07T11:31:48.115Z,81.81
2022-09-07T11:32:48.092Z,83.51
2022-09-07T11:34:23.839Z,81.51
2022-09-07T11:34:48.074Z,81.31
2022-09-07T11:35:48.123Z,83.65
2022-09-07T11:36:48.040Z,84.41
2022-09-07T11:37:48.044Z,81.92
2022-09-07T11:38:48.027Z,81.25
2022-09-07T11:39:48.093Z,81.41
2022-09-07T11:40:48.019Z,84.51
2022-09-07T11:41:48.027Z,85.61
2022-09-07T11:42:47.991Z,85.97
2022-09-07T11:43:47.973Z,85.37
2022-09-07T11:44:47.963Z,85.67
2022-09-07T11:45:47.990Z,84.57
2022-09-07T11:46:47.948Z,84.77
2022-09-07T11:47:47.962Z,85.17
2022-09-07T11:48:47.938Z,85.27
2022-09-07T11:49:52.590Z,85.57
2022-09-07T11:50:47.905Z,85.37
2022-09-07T11:51:53.624Z,84.27
2022-09-07T11:52:53.537Z,84.57
2022-09-07T11:53:47.893Z,86.27
2022-09-07T11:54:47.851Z,86.57
2022-09-07T11:55:47.852Z,86.57
2022-09-07T11:56:47.833Z,85.93
2022-09-07T11:57:50.460Z,86.17
2022-09-07T11:58:47.811Z,86.66
2022-09-07T11:59:47.819Z,81.48
2022-09-07T12:00:47.792Z,81.67
2022-09-07T12:01:47.786Z,81.57
2022-09-07T12:02:59.347Z,83.07
2022-09-07T12:03:47.975Z,83.83
2022-09-07T12:04:47.801Z,81.63
2022-09-07T12:05:47.761Z,82.03
2022-09-07T12:06:47.897Z,83.23
2022-09-07T12:07:47.726Z,79.54
2022-09-07T12:08:47.711Z,80.64
2022-09-07T12:09:47.689Z,82.09
2022-09-07T12:10:47.690Z,83.19
2022-09-07T12:11:47.695Z,81.20
2022-09-07T12:12:47.672Z,79.80
2022-09-07T12:13:47.666Z,80.70
2022-09-07T12:14:47.650Z,81.00
2022-09-07T12:15:47.718Z,80.10
2022-09-07T12:16:47.620Z,83.29
2022-09-07T12:17:47.622Z,81.70
2022-09-07T12:18:47.597Z,81.90
2022-09-07T12:19:47.591Z,83.99
2022-09-07T12:20:47.610Z,84.05
2022-09-07T12:21:47.566Z,80.86
2022-09-07T12:22:47.553Z,81.96
2022-09-07T12:23:47.576Z,82.35
2022-09-07T12:24:47.538Z,81.96
2022-09-07T12:25:47.521Z,78.56
2022-09-07T12:26:47.532Z,78.37
2022-09-07T12:27:47.504Z,77.87
2022-09-07T12:28:47.490Z,78.37
2022-09-07T12:29:47.504Z,78.07
2022-09-07T12:30:47.496Z,78.27
2022-09-07T12:31:57.789Z,79.66
2022-09-07T12:32:56.060Z,81.36
2022-09-07T12:33:47.456Z,81.82
2022-09-07T12:34:47.449Z,82.51
2022-09-07T12:35:47.441Z,82.62
2022-09-07T12:36:47.416Z,81.92
2022-09-07T12:37:47.399Z,82.48
2022-09-07T12:38:47.392Z,80.88
2022-09-07T12:39:47.433Z,78.09
2022-09-07T12:40:47.372Z,78.03
2022-09-07T12:41:47.923Z,79.69
2022-09-07T12:42:47.340Z,78.49
2022-09-07T12:43:47.332Z,80.38
2022-09-07T12:44:47.317Z,79.19
2022-09-07T12:45:47.346Z,78.33
2022-09-07T12:46:47.377Z,79.39
2022-09-07T12:47:47.661Z,78.99
2022-09-07T12:48:47.271Z,80.78
2022-09-07T12:49:47.271Z,81.98
2022-09-07T12:50:47.251Z,83.67
2022-09-07T12:52:13.891Z,82.37
2022-09-07T12:52:47.242Z,78.09
2022-09-07T12:53:47.247Z,81.48
2022-09-07T12:54:55.793Z,81.88
2022-09-07T12:57:28.673Z,82.78
2022-09-07T12:57:47.189Z,78.39
2022-09-07T12:58:47.169Z,79.99
2022-09-07T12:59:47.177Z,77.29
2022-09-07T13:00:47.150Z,76.90
2022-09-07T13:01:47.215Z,78.45
2022-09-07T13:02:47.152Z,81.34
2022-09-07T13:03:51.623Z,81.80
2022-09-07T13:04:47.126Z,81.04
2022-09-07T13:05:47.113Z,78.65
2022-09-07T13:07:02.902Z,77.62
2022-09-07T13:07:47.098Z,79.31
2022-09-07T13:08:47.061Z,81.06
2022-09-07T13:09:47.053Z,74.99
2022-09-07T13:10:47.034Z,76.68
2022-09-07T13:11:47.051Z,77.84
2022-09-07T13:12:56.778Z,77.94
2022-09-07T13:14:04.483Z,79.30
2022-09-07T13:14:47.002Z,79.69
2022-09-07T13:15:47.635Z,78.47
2022-09-07T13:17:47.011Z,78.49
2022-09-07T13:18:46.952Z,75.78
2022-09-07T13:19:46.941Z,75.70
2022-09-07T13:20:46.933Z,70.15
2022-09-07T13:21:46.942Z,71.60
2022-09-07T13:22:46.924Z,73.35
2022-09-07T13:23:46.921Z,73.71
2022-09-07T13:24:47.589Z,72.49
2022-09-07T13:25:46.880Z,71.99
2022-09-07T13:26:50.657Z,73.14
2022-09-07T13:27:46.856Z,70.15
2022-09-07T13:28:47.549Z,65.20
2022-09-07T13:29:46.855Z,64.02
2022-09-07T13:30:46.895Z,66.82
2022-09-07T13:31:46.815Z,65.30